createdAt,value
2023-03-28T00:01:12.654Z,6.25
2023-03-28T00:03:40.666Z,6.34
2023-03-28T00:06:12.385Z,6.37
2023-03-28T00:08:40.940Z,6.31
2023-03-28T00:11:15.543Z,6.33
2023-03-28T00:13:43.060Z,6.32
2023-03-28T00:16:13.643Z,6.31
2023-03-28T00:18:43.038Z,6.43
2023-03-28T00:21:25.949Z,6.52
2023-03-28T00:23:55.701Z,6.44
2023-03-28T00:26:26.928Z,6.48
2023-03-28T00:28:54.658Z,6.47
2023-03-28T00:31:23.419Z,6.50
2023-03-28T00:33:51.062Z,6.45
2023-03-28T00:36:22.770Z,6.49
2023-03-28T00:38:52.346Z,6.44
2023-03-28T00:41:21.765Z,6.43
2023-03-28T00:43:52.310Z,6.54
2023-03-28T00:46:22.856Z,6.56
2023-03-28T00:48:54.755Z,6.42
2023-03-28T00:51:28.153Z,6.49
2023-03-28T00:53:59.953Z,6.50
2023-03-28T00:56:31.558Z,6.46
2023-03-28T00:59:02.943Z,6.59
2023-03-28T01:01:30.576Z,6.47
2023-03-28T01:04:02.980Z,6.44
2023-03-28T01:06:33.523Z,6.47
2023-03-28T01:09:04.597Z,6.47
2023-03-28T01:11:33.975Z,6.43
2023-03-28T01:14:04.180Z,6.35
2023-03-28T01:16:32.622Z,6.31
2023-03-28T01:19:02.711Z,6.38
2023-03-28T01:21:54.852Z,6.29
2023-03-28T01:24:43.678Z,6.15
2023-03-28T01:27:30.996Z,6.09
2023-03-28T01:30:02.449Z,6.02
2023-03-28T01:32:48.679Z,6.05
2023-03-28T01:35:34.635Z,5.99
2023-03-28T01:38:08.189Z,6.16
2023-03-28T01:40:39.472Z,6.06
2023-03-28T01:43:57.092Z,6.11
2023-03-28T01:46:31.952Z,6.06
2023-03-28T01:49:02.225Z,6.09
2023-03-28T01:51:47.738Z,5.88
2023-03-28T01:54:30.141Z,5.78
2023-03-28T01:57:15.983Z,5.80
2023-03-28T01:59:48.939Z,5.78
2023-03-28T02:02:31.952Z,5.60
2023-03-28T02:05:04.283Z,5.65
2023-03-28T02:07:33.862Z,5.73
2023-03-28T02:10:04.728Z,5.71
2023-03-28T02:12:38.356Z,5.79
2023-03-28T02:15:09.797Z,5.78
2023-03-28T02:17:43.936Z,5.74
2023-03-28T02:20:16.757Z,5.78
2023-03-28T02:23:07.735Z,5.73
2023-03-28T02:25:36.585Z,5.79
2023-03-28T02:28:07.984Z,5.81
2023-03-28T02:30:36.775Z,5.55
2023-03-28T02:33:08.706Z,5.71
2023-03-28T02:35:59.612Z,5.58
2023-03-28T02:38:47.932Z,5.38
2023-03-28T02:41:24.585Z,5.58
2023-03-28T02:44:02.240Z,5.60
2023-03-28T02:46:42.894Z,5.61
2023-03-28T02:49:49.240Z,5.63
2023-03-28T02:52:40.150Z,5.61
2023-03-28T02:55:19.559Z,5.52
2023-03-28T02:57:51.726Z,5.63
2023-03-28T03:00:21.169Z,5.69
2023-03-28T03:02:51.671Z,5.75
2023-03-28T03:05:21.226Z,5.67
2023-03-28T03:07:50.346Z,5.71
2023-03-28T03:10:18.788Z,5.56
2023-03-28T03:12:47.359Z,5.66
2023-03-28T03:15:17.188Z,5.63
2023-03-28T03:17:45.182Z,5.60
2023-03-28T03:20:13.039Z,5.65
2023-03-28T03:22:41.001Z,5.49
2023-03-28T03:25:10.349Z,5.53
2023-03-28T03:27:39.405Z,5.49
2023-03-28T03:30:07.807Z,5.44
2023-03-28T03:32:35.561Z,5.43
2023-03-28T03:35:03.614Z,5.34
2023-03-28T03:37:31.196Z,5.26
2023-03-28T03:39:58.799Z,5.16
2023-03-28T03:42:26.375Z,5.21
2023-03-28T03:44:54.463Z,5.10
2023-03-28T03:47:22.044Z,5.14
2023-03-28T03:49:49.572Z,5.12
2023-03-28T03:52:17.248Z,5.14
2023-03-28T03:54:44.762Z,5.23
2023-03-28T03:57:12.337Z,5.15
2023-03-28T03:59:39.872Z,5.17
2023-03-28T04:02:07.429Z,5.23
2023-03-28T04:04:35.027Z,5.03
2023-03-28T04:07:02.537Z,5.07
2023-03-28T04:09:30.108Z,5.24
2023-03-28T04:11:57.745Z,5.10
2023-03-28T04:14:25.510Z,5.08
2023-03-28T04:16:53.787Z,5.12
2023-03-28T04:19:24.404Z,5.13
2023-03-28T04:21:52.690Z,5.21
2023-03-28T04:24:24.242Z,5.16
2023-03-28T04:26:55.936Z,5.33
2023-03-28T04:29:30.536Z,5.37
2023-03-28T04:31:59.291Z,5.27
2023-03-28T04:34:30.000Z,5.37
2023-03-28T04:37:02.544Z,5.26
2023-03-28T04:39:35.837Z,5.29
2023-03-28T04:42:05.835Z,5.32
2023-03-28T04:44:33.454Z,5.34
2023-03-28T04:47:01.834Z,5.17
2023-03-28T04:49:29.515Z,5.29
2023-03-28T04:51:57.074Z,5.24
2023-03-28T04:54:24.565Z,5.16
2023-03-28T04:56:52.161Z,5.14
2023-03-28T04:59:20.170Z,5.07
2023-03-28T05:01:50.022Z,5.21
2023-03-28T05:04:18.692Z,5.28
2023-03-28T05:06:50.836Z,5.27
2023-03-28T05:09:18.605Z,5.30
2023-03-28T05:11:47.120Z,5.37
2023-03-28T05:14:15.137Z,5.33
2023-03-28T05:16:42.897Z,5.42
2023-03-28T05:19:11.134Z,5.41
2023-03-28T05:21:38.687Z,5.35
2023-03-28T05:24:06.876Z,5.38
2023-03-28T05:26:34.426Z,5.29
2023-03-28T05:29:01.939Z,5.40
2023-03-28T05:31:30.733Z,5.42
2023-03-28T05:33:58.461Z,5.39
2023-03-28T05:36:26.277Z,5.43
2023-03-28T05:38:53.900Z,5.39
2023-03-28T05:41:21.528Z,5.50
2023-03-28T05:43:49.048Z,5.54
2023-03-28T05:46:16.621Z,5.50
2023-03-28T05:48:44.236Z,5.47
2023-03-28T05:51:17.509Z,5.51
2023-03-28T05:53:45.381Z,5.55
2023-03-28T05:56:12.969Z,5.68
2023-03-28T05:58:41.616Z,5.75
2023-03-28T06:01:10.005Z,5.78
2023-03-28T06:03:40.078Z,5.77
2023-03-28T06:06:08.388Z,5.82
2023-03-28T06:08:36.185Z,5.89
2023-03-28T06:11:04.797Z,5.78
2023-03-28T06:13:32.360Z,5.98
2023-03-28T06:15:59.977Z,6.07
2023-03-28T06:18:27.568Z,6.28
2023-03-28T06:20:55.123Z,6.33
2023-03-28T06:23:22.943Z,6.43
2023-03-28T06:25:50.691Z,6.57
2023-03-28T06:28:18.245Z,6.73
2023-03-28T06:30:50.409Z,6.70
2023-03-28T06:33:17.896Z,6.93
2023-03-28T06:35:46.284Z,6.96
2023-03-28T06:38:13.894Z,6.95
2023-03-28T06:40:41.591Z,7.12
2023-03-28T06:43:09.185Z,7.21
2023-03-28T06:45:36.811Z,7.26
2023-03-28T06:48:04.686Z,7.27
2023-03-28T06:50:32.371Z,7.51
2023-03-28T06:52:59.949Z,7.64
2023-03-28T06:55:27.711Z,7.60
2023-03-28T06:57:55.399Z,7.72
2023-03-28T07:00:23.393Z,7.65
2023-03-28T07:02:51.060Z,7.67
2023-03-28T07:05:18.836Z,7.61
2023-03-28T07:07:46.454Z,7.82
2023-03-28T07:10:14.013Z,7.81
2023-03-28T07:12:41.636Z,7.69
2023-03-28T07:15:09.624Z,7.95
2023-03-28T07:17:37.270Z,7.92
2023-03-28T07:20:05.391Z,7.96
2023-03-28T07:22:33.158Z,8.17
2023-03-28T07:25:00.853Z,8.67
2023-03-28T07:27:28.322Z,8.84
2023-03-28T07:29:55.995Z,8.47
2023-03-28T07:32:23.783Z,8.60
2023-03-28T07:34:51.436Z,8.74
2023-03-28T07:37:19.070Z,8.57
2023-03-28T07:39:46.742Z,9.09
2023-03-28T07:42:15.921Z,9.00
2023-03-28T07:44:43.726Z,8.93
2023-03-28T07:47:11.503Z,9.31
2023-03-28T07:49:39.567Z,8.93
2023-03-28T07:52:07.421Z,9.56
2023-03-28T07:54:35.178Z,9.48
2023-03-28T07:57:02.778Z,9.64
2023-03-28T07:59:30.383Z,9.84
2023-03-28T08:01:58.181Z,9.72
2023-03-28T08:04:25.789Z,9.89
2023-03-28T08:06:53.309Z,10.06
2023-03-28T08:09:21.267Z,9.76
2023-03-28T08:11:48.831Z,9.87
2023-03-28T08:14:18.891Z,9.46
2023-03-28T08:16:47.016Z,9.74
2023-03-28T08:19:14.874Z,9.60
2023-03-28T08:21:42.467Z,9.80
2023-03-28T08:24:12.913Z,10.01
2023-03-28T08:26:47.394Z,10.08
2023-03-28T08:29:16.363Z,9.91
2023-03-28T08:31:43.983Z,10.20
2023-03-28T08:34:11.520Z,10.05
2023-03-28T08:36:39.040Z,10.46
2023-03-28T08:39:06.661Z,10.31
2023-03-28T08:42:00.138Z,10.56
2023-03-28T08:44:43.075Z,10.56
2023-03-28T08:47:18.636Z,10.57
2023-03-28T08:49:49.372Z,10.78
2023-03-28T08:52:20.129Z,10.69
2023-03-28T08:54:56.283Z,10.52
2023-03-28T08:57:29.287Z,10.62
2023-03-28T09:00:03.657Z,10.71
2023-03-28T09:02:32.511Z,10.68
2023-03-28T09:05:11.934Z,10.84
2023-03-28T09:07:59.821Z,10.70
2023-03-28T09:10:43.894Z,10.50
2023-03-28T09:13:14.513Z,11.09
2023-03-28T09:15:47.585Z,11.02
2023-03-28T09:18:33.258Z,10.64
2023-03-28T09:21:03.447Z,10.31
2023-03-28T09:23:39.686Z,10.70
2023-03-28T09:26:18.974Z,11.01
2023-03-28T09:29:14.702Z,10.75
2023-03-28T09:31:47.823Z,10.55
2023-03-28T09:34:23.154Z,10.32
2023-03-28T09:36:55.326Z,10.77
2023-03-28T09:39:28.518Z,10.96
2023-03-28T09:42:09.333Z,10.62
2023-03-28T09:44:59.144Z,11.18
2023-03-28T09:47:27.364Z,10.78
2023-03-28T09:50:05.618Z,11.10
2023-03-28T09:52:37.714Z,11.47
2023-03-28T09:55:05.476Z,11.19
2023-03-28T09:58:02.769Z,11.02
2023-03-28T10:00:30.722Z,11.22
2023-03-28T10:02:58.312Z,10.80
2023-03-28T10:05:40.125Z,11.03
2023-03-28T10:08:24.104Z,10.40
2023-03-28T10:10:57.793Z,10.78
2023-03-28T10:13:26.264Z,10.97
2023-03-28T10:15:57.873Z,10.62
2023-03-28T10:18:28.738Z,10.79
2023-03-28T10:20:57.434Z,10.91
2023-03-28T10:23:26.139Z,10.23
2023-03-28T10:25:56.399Z,10.18
2023-03-28T10:28:36.486Z,10.45
2023-03-28T10:31:04.922Z,10.86
2023-03-28T10:33:38.246Z,11.01
2023-03-28T10:36:09.586Z,11.09
2023-03-28T10:38:49.373Z,11.73
2023-03-28T10:41:26.110Z,11.84
2023-03-28T10:43:54.881Z,11.22
2023-03-28T10:46:36.125Z,11.42
2023-03-28T10:49:14.308Z,11.14
2023-03-28T10:51:43.759Z,11.92
2023-03-28T10:54:35.276Z,12.24
2023-03-28T10:57:17.814Z,12.18
2023-03-28T10:59:51.424Z,11.98
2023-03-28T11:02:37.782Z,11.95
2023-03-28T11:05:33.023Z,11.93
2023-03-28T11:08:10.928Z,11.97
2023-03-28T11:11:00.179Z,12.27
2023-03-28T11:13:33.753Z,11.41
2023-03-28T11:16:22.303Z,12.27
2023-03-28T11:19:06.051Z,11.30
2023-03-28T11:21:58.277Z,12.25
2023-03-28T11:24:32.016Z,12.04
2023-03-28T11:27:18.226Z,12.13
2023-03-28T11:29:50.874Z,12.49
2023-03-28T11:32:21.691Z,12.90
2023-03-28T11:35:03.271Z,13.15
2023-03-28T11:37:54.880Z,13.01
2023-03-28T11:40:28.214Z,12.93
2023-03-28T11:43:04.503Z,12.37
2023-03-28T11:45:53.025Z,12.61
2023-03-28T11:48:49.246Z,13.02
2023-03-28T11:51:21.736Z,12.60
2023-03-28T11:54:13.146Z,12.42
2023-03-28T11:56:53.279Z,12.20
2023-03-28T11:59:39.608Z,11.96
2023-03-28T12:02:31.906Z,12.30
2023-03-28T12:05:20.993Z,12.63
2023-03-28T12:07:53.992Z,12.27
2023-03-28T12:10:26.452Z,11.89
2023-03-28T12:13:17.808Z,11.77
2023-03-28T12:15:53.137Z,12.43
2023-03-28T12:18:28.310Z,12.20
2023-03-28T12:21:14.905Z,12.45
2023-03-28T12:24:11.400Z,12.20
2023-03-28T12:26:58.046Z,12.18
2023-03-28T12:29:40.205Z,12.00
2023-03-28T12:32:26.603Z,11.98
2023-03-28T12:35:00.252Z,11.88
2023-03-28T12:37:36.577Z,12.37
2023-03-28T12:40:19.929Z,12.09
2023-03-28T12:42:48.790Z,11.88
2023-03-28T12:45:23.954Z,11.95
2023-03-28T12:47:54.924Z,12.03
2023-03-28T12:50:40.542Z,11.87
2023-03-28T12:53:12.640Z,11.90
2023-03-28T12:55:51.597Z,11.69
2023-03-28T12:58:38.122Z,12.20
2023-03-28T13:01:08.693Z,12.12
2023-03-28T13:04:04.535Z,11.92
2023-03-28T13:07:18.414Z,11.93
2023-03-28T13:10:12.868Z,11.73
2023-03-28T13:13:11.223Z,11.85
2023-03-28T13:15:56.536Z,11.73
2023-03-28T13:18:31.339Z,11.89
2023-03-28T13:21:00.414Z,12.34
2023-03-28T13:23:35.685Z,12.03
2023-03-28T13:26:06.514Z,12.11
2023-03-28T13:28:48.400Z,12.05
2023-03-28T13:31:19.059Z,12.30
2023-03-28T13:33:49.702Z,12.24
2023-03-28T13:36:23.150Z,12.17
2023-03-28T13:39:00.467Z,12.84
2023-03-28T13:41:43.652Z,13.48
2023-03-28T13:44:15.288Z,13.58
2023-03-28T13:46:43.909Z,13.47
2023-03-28T13:49:11.524Z,12.99
2023-03-28T13:52:04.795Z,12.49
2023-03-28T13:54:32.933Z,12.73
2023-03-28T13:57:06.514Z,12.49
2023-03-28T13:59:38.134Z,12.79
2023-03-28T14:02:20.232Z,12.98
2023-03-28T14:04:57.077Z,13.11
2023-03-28T14:07:26.409Z,12.86
2023-03-28T14:09:56.124Z,12.70
2023-03-28T14:12:28.554Z,12.49
2023-03-28T14:14:59.270Z,12.63
2023-03-28T14:17:36.391Z,12.52
2023-03-28T14:20:08.239Z,12.83
2023-03-28T14:22:52.837Z,12.50
2023-03-28T14:25:26.316Z,12.78
2023-03-28T14:27:56.428Z,12.31
2023-03-28T14:30:29.916Z,12.31
2023-03-28T14:32:59.889Z,12.40
2023-03-28T14:35:31.982Z,12.34
2023-03-28T14:38:03.853Z,12.25
2023-03-28T14:40:36.441Z,12.47
2023-03-28T14:43:07.289Z,12.34
2023-03-28T14:45:37.620Z,12.50
2023-03-28T14:48:09.375Z,12.40
2023-03-28T14:50:39.888Z,12.53
2023-03-28T14:53:10.459Z,12.69
2023-03-28T14:55:38.651Z,13.03
2023-03-28T14:58:07.179Z,13.27
2023-03-28T15:00:41.988Z,12.93
2023-03-28T15:03:15.754Z,13.37
2023-03-28T15:05:50.024Z,12.96
2023-03-28T15:08:36.803Z,13.55
2023-03-28T15:11:22.208Z,13.17
2023-03-28T15:13:58.675Z,13.42
2023-03-28T15:16:27.849Z,13.09
2023-03-28T15:19:07.089Z,12.94
2023-03-28T15:21:40.044Z,12.48
2023-03-28T15:24:13.447Z,12.85
2023-03-28T15:26:48.042Z,12.73
2023-03-28T15:29:19.516Z,13.14
2023-03-28T15:31:47.673Z,12.88
2023-03-28T15:34:27.401Z,13.11
2023-03-28T15:37:03.818Z,12.95
2023-03-28T15:39:36.088Z,13.17
2023-03-28T15:42:22.733Z,12.90
2023-03-28T15:44:59.633Z,12.62
2023-03-28T15:47:30.596Z,12.58
2023-03-28T15:50:09.525Z,12.26
2023-03-28T15:52:37.584Z,12.39
2023-03-28T15:55:06.966Z,11.78
2023-03-28T15:57:34.660Z,11.86
2023-03-28T16:00:02.283Z,12.06
2023-03-28T16:02:33.229Z,12.44
2023-03-28T16:05:15.846Z,12.38
2023-03-28T16:07:46.734Z,11.87
2023-03-28T16:10:17.519Z,11.90
2023-03-28T16:12:46.077Z,12.05
2023-03-28T16:15:14.318Z,11.84
2023-03-28T16:17:44.728Z,11.78
2023-03-28T16:20:26.240Z,11.80
2023-03-28T16:22:53.767Z,11.49
2023-03-28T16:25:21.315Z,11.47
2023-03-28T16:27:48.960Z,11.30
2023-03-28T16:30:40.476Z,11.43
2023-03-28T16:33:08.159Z,11.53
2023-03-28T16:35:36.552Z,11.58
2023-03-28T16:38:04.341Z,11.64
2023-03-28T16:40:31.903Z,11.40
2023-03-28T16:43:00.139Z,11.51
2023-03-28T16:45:29.777Z,11.66
2023-03-28T16:47:57.613Z,11.80
2023-03-28T16:50:25.179Z,11.64
2023-03-28T16:52:52.746Z,11.82
2023-03-28T16:55:20.464Z,11.67
2023-03-28T16:57:48.016Z,11.80
2023-03-28T17:00:18.056Z,11.72
2023-03-28T17:02:49.083Z,11.72
2023-03-28T17:05:17.849Z,11.49
2023-03-28T17:07:45.507Z,11.78
2023-03-28T17:10:13.465Z,11.74
2023-03-28T17:12:41.389Z,11.92
2023-03-28T17:15:10.006Z,11.66
2023-03-28T17:17:37.607Z,11.33
2023-03-28T17:20:06.523Z,11.30
2023-03-28T17:22:34.143Z,11.17
2023-03-28T17:25:02.092Z,11.37
2023-03-28T17:27:30.136Z,11.07
2023-03-28T17:29:57.905Z,11.49
2023-03-28T17:32:25.794Z,11.32
2023-03-28T17:34:53.715Z,11.13
2023-03-28T17:37:24.318Z,11.52
2023-03-28T17:39:52.413Z,11.30
2023-03-28T17:42:19.886Z,11.23
2023-03-28T17:44:47.378Z,11.38
2023-03-28T17:47:15.227Z,11.41
2023-03-28T17:49:43.215Z,11.25
2023-03-28T17:52:11.233Z,11.23
2023-03-28T17:54:38.792Z,11.41
2023-03-28T17:57:08.024Z,11.47
2023-03-28T17:59:36.180Z,11.23
2023-03-28T18:02:04.099Z,11.45
2023-03-28T18:04:31.845Z,11.42
2023-03-28T18:06:59.357Z,11.54
2023-03-28T18:09:27.508Z,11.59
2023-03-28T18:11:55.378Z,11.59
2023-03-28T18:14:22.876Z,11.49
2023-03-28T18:16:50.804Z,11.40
2023-03-28T18:19:18.664Z,11.49
2023-03-28T18:21:47.058Z,11.51
2023-03-28T18:24:14.767Z,11.54
2023-03-28T18:26:42.390Z,11.60
2023-03-28T18:29:10.050Z,11.54
2023-03-28T18:31:39.027Z,11.26
2023-03-28T18:34:06.731Z,11.36
2023-03-28T18:36:36.925Z,11.08
2023-03-28T18:39:06.029Z,11.25
2023-03-28T18:41:33.702Z,11.07
2023-03-28T18:44:01.314Z,11.28
2023-03-28T18:46:29.813Z,11.33
2023-03-28T18:48:59.621Z,11.11
2023-03-28T18:51:27.674Z,11.05
2023-03-28T18:53:55.824Z,10.69
2023-03-28T18:56:23.803Z,10.80
2023-03-28T18:58:51.436Z,10.94
2023-03-28T19:01:20.493Z,11.17
2023-03-28T19:03:49.968Z,10.64
2023-03-28T19:06:17.808Z,10.59
2023-03-28T19:08:50.074Z,10.26
2023-03-28T19:11:19.617Z,10.48
2023-03-28T19:13:47.105Z,10.55
2023-03-28T19:16:19.040Z,10.50
2023-03-28T19:18:47.992Z,10.49
2023-03-28T19:21:16.677Z,10.52
2023-03-28T19:23:44.550Z,10.76
2023-03-28T19:26:13.702Z,10.74
2023-03-28T19:28:41.885Z,10.51
2023-03-28T19:31:11.990Z,10.43
2023-03-28T19:33:40.738Z,10.42
2023-03-28T19:36:08.970Z,10.45
2023-03-28T19:38:38.304Z,10.58
2023-03-28T19:41:10.872Z,10.36
2023-03-28T19:43:39.691Z,10.32
2023-03-28T19:46:09.622Z,10.31
2023-03-28T19:48:37.575Z,9.97
2023-03-28T19:51:05.175Z,9.93
2023-03-28T19:53:35.031Z,10.02
2023-03-28T19:56:02.838Z,10.06
2023-03-28T19:58:31.236Z,9.89
2023-03-28T20:00:58.957Z,10.07
2023-03-28T20:03:26.703Z,10.06
2023-03-28T20:05:54.410Z,10.09
2023-03-28T20:08:22.041Z,10.17
2023-03-28T20:10:53.713Z,9.82
2023-03-28T20:13:21.448Z,10.14
2023-03-28T20:15:49.130Z,9.96
2023-03-28T20:18:19.963Z,9.94
2023-03-28T20:20:56.708Z,9.99
2023-03-28T20:23:26.067Z,10.16
2023-03-28T20:25:54.967Z,10.13
2023-03-28T20:28:25.053Z,10.04
2023-03-28T20:30:54.242Z,9.74
2023-03-28T20:33:22.437Z,9.77
2023-03-28T20:35:58.245Z,9.64
2023-03-28T20:38:27.095Z,10.07
2023-03-28T20:40:54.750Z,10.36
2023-03-28T20:43:26.568Z,10.13
2023-03-28T20:45:56.141Z,10.14
2023-03-28T20:48:34.463Z,10.11
2023-03-28T20:51:06.828Z,9.68
2023-03-28T20:53:34.831Z,9.75
2023-03-28T20:56:04.859Z,10.08
2023-03-28T20:58:33.795Z,9.82
2023-03-28T21:01:05.223Z,9.59
2023-03-28T21:03:46.656Z,9.38
2023-03-28T21:06:18.278Z,9.62
2023-03-28T21:08:47.618Z,9.60
2023-03-28T21:11:18.419Z,9.65
2023-03-28T21:13:46.418Z,9.37
2023-03-28T21:16:15.872Z,9.54
2023-03-28T21:18:44.221Z,9.46
2023-03-28T21:21:14.018Z,9.45
2023-03-28T21:23:42.148Z,9.28
2023-03-28T21:26:12.450Z,9.49
2023-03-28T21:28:40.851Z,9.39
2023-03-28T21:31:15.413Z,9.61
2023-03-28T21:33:43.513Z,9.38
2023-03-28T21:36:14.268Z,9.43
2023-03-28T21:38:41.918Z,9.66
2023-03-28T21:41:11.256Z,9.51
2023-03-28T21:43:39.737Z,9.56
2023-03-28T21:46:08.397Z,9.68
2023-03-28T21:48:36.681Z,9.36
2023-03-28T21:51:04.888Z,9.28
2023-03-28T21:53:38.630Z,9.51
2023-03-28T21:56:06.808Z,9.78
2023-03-28T21:58:34.975Z,9.68
2023-03-28T22:01:04.737Z,9.75
2023-03-28T22:03:32.861Z,9.36
2023-03-28T22:06:00.414Z,9.99
2023-03-28T22:08:28.067Z,9.74
2023-03-28T22:10:58.553Z,9.57
2023-03-28T22:13:28.843Z,9.29
2023-03-28T22:15:58.443Z,9.38
2023-03-28T22:18:26.959Z,9.66
2023-03-28T22:20:54.762Z,9.27
2023-03-28T22:23:24.458Z,9.42
2023-03-28T22:25:53.097Z,9.67
2023-03-28T22:28:24.446Z,9.51
2023-03-28T22:30:55.114Z,9.72
2023-03-28T22:33:23.564Z,9.67
2023-03-28T22:35:51.246Z,9.34
2023-03-28T22:38:19.624Z,9.25
2023-03-28T22:40:47.604Z,9.92
2023-03-28T22:43:16.315Z,9.68
2023-03-28T22:45:44.231Z,9.75
2023-03-28T22:48:14.525Z,9.63
2023-03-28T22:50:44.464Z,9.54
2023-03-28T22:53:14.221Z,9.64
2023-03-28T22:55:42.395Z,9.65
2023-03-28T22:58:10.084Z,9.78
2023-03-28T23:00:37.741Z,9.66
2023-03-28T23:03:05.482Z,9.31
2023-03-28T23:05:33.256Z,9.71
2023-03-28T23:08:00.997Z,9.62
2023-03-28T23:10:28.884Z,9.59
2023-03-28T23:12:56.436Z,9.74
2023-03-28T23:15:24.267Z,9.77
2023-03-28T23:17:52.092Z,9.86
2023-03-28T23:20:20.165Z,9.89
2023-03-28T23:22:49.372Z,9.39
2023-03-28T23:25:19.337Z,10.01
2023-03-28T23:27:47.548Z,9.54
2023-03-28T23:30:16.638Z,9.53
2023-03-28T23:32:44.284Z,9.59
2023-03-28T23:35:12.240Z,9.58
2023-03-28T23:37:40.485Z,9.74
2023-03-28T23:40:14.053Z,9.46
2023-03-28T23:42:44.514Z,9.63
2023-03-28T23:45:14.958Z,9.60
2023-03-28T23:47:43.833Z,9.48
2023-03-28T23:50:12.039Z,9.82
2023-03-28T23:52:39.828Z,9.69
2023-03-28T23:55:08.902Z,9.56
2023-03-28T23:57:37.272Z,9.71
